Time;durP1;ratioP1;P1;durP2;ratioP2;P2;SDS_P1;SDS_P2;PMS_P1;PMS_P2;Temp;Humidity;BMP_temperature;BMP_pressure;BME280_temperature;BME280_humidity;BME280_pressure;Samples;Min_cycle;Max_cycle;Signal;HPM_P1;HPM_P2
2022/07/09 00:01:24;;;;;;;21.65;3.75;;;;;;;25.38;48.65;100174.38;4994071;28;20405;-75
2022/07/09 00:03:51;;;;;;;11.43;3.13;;;;;;;25.32;48.74;100175.28;4993799;28;20022;-75
2022/07/09 00:06:16;;;;;;;9.48;3.53;;;;;;;25.29;48.63;100167.47;4993971;28;20030;-75
2022/07/09 00:08:42;;;;;;;7.53;2.80;;;;;;;25.32;48.41;100169.78;4993631;28;20026;-75
2022/07/09 00:11:07;;;;;;;8.45;3.65;;;;;;;25.26;48.26;100155.03;4993963;28;20023;-75
2022/07/09 00:13:32;;;;;;;10.57;3.10;;;;;;;25.31;48.13;100174.47;4993938;28;20026;-75
2022/07/09 00:15:58;;;;;;;9.18;2.75;;;;;;;25.31;48.17;100168.97;4993951;28;20018;-75
2022/07/09 00:18:23;;;;;;;14.88;3.70;;;;;;;25.33;47.97;100172.31;4993769;28;20028;-74
2022/07/09 00:20:49;;;;;;;8.60;2.72;;;;;;;25.29;47.95;100167.47;4993645;28;20034;-74
2022/07/09 00:23:14;;;;;;;5.95;2.90;;;;;;;25.27;48.02;100172.38;4993710;28;20018;-74
2022/07/09 00:25:39;;;;;;;14.35;2.88;;;;;;;25.30;48.02;100171.94;4993460;28;20018;-74
2022/07/09 00:28:05;;;;;;;9.98;3.03;;;;;;;25.32;47.89;100175.28;4993581;28;20050;-74
2022/07/09 00:30:31;;;;;;;9.80;2.92;;;;;;;25.31;47.87;100173.63;4993631;28;20018;-75
2022/07/09 00:32:56;;;;;;;8.65;3.15;;;;;;;25.29;48.01;100167.47;4993556;28;20030;-75
2022/07/09 00:35:22;;;;;;;6.75;3.22;;;;;;;25.27;47.93;100177.91;4993398;28;20030;-75
2022/07/09 00:37:47;;;;;;;17.52;3.08;;;;;;;25.26;48.22;100176.19;4993651;28;20026;-75
2022/07/09 00:40:13;;;;;;;5.65;3.05;;;;;;;25.21;48.20;100167.81;4993443;28;20027;-74
2022/07/09 00:42:38;;;;;;;8.77;2.80;;;;;;;25.26;48.33;100177.03;4993342;28;20030;-74
2022/07/09 00:45:04;;;;;;;10.15;3.50;;;;;;;25.24;48.34;100181.09;4993434;28;20501;-74
2022/07/09 00:47:30;;;;;;;7.50;3.03;;;;;;;25.09;48.62;100166.91;4993392;28;20026;-74
2022/07/09 00:49:56;;;;;;;7.03;3.70;;;;;;;25.08;48.49;100171.56;4993216;28;20377;-74
2022/07/09 00:52:22;;;;;;;9.32;3.83;;;;;;;25.11;48.60;100178.50;4993267;28;20487;-74
2022/07/09 00:54:48;;;;;;;12.32;3.60;;;;;;;25.04;48.68;100172.25;4993040;28;20111;-75
2022/07/09 00:57:16;;;;;;;14.45;3.92;;;;;;;24.97;48.81;100168.75;4993070;28;20070;-74
2022/07/09 00:59:42;;;;;;;9.35;3.20;;;;;;;24.91;49.04;100173.25;4993220;28;20037;-76
2022/07/09 01:02:08;;;;;;;9.15;3.22;;;;;;;24.90;48.99;100161.41;4993377;28;20027;-75
2022/07/09 01:04:34;;;;;;;9.50;3.92;;;;;;;24.81;49.50;100171.03;4993179;28;20030;-75
2022/07/09 01:06:59;;;;;;;9.30;3.03;;;;;;;24.75;49.68;100155.41;4993190;28;20714;-74
2022/07/09 01:09:27;;;;;;;10.50;4.10;;;;;;;24.77;49.52;100156.00;4993083;28;20030;-74
2022/07/09 01:11:52;;;;;;;8.02;3.13;;;;;;;24.70;49.72;100160.75;4993035;28;20030;-74
2022/07/09 01:14:18;;;;;;;8.88;3.45;;;;;;;24.70;49.76;100165.41;4993217;28;20135;-74
2022/07/09 01:16:43;;;;;;;12.98;3.83;;;;;;;24.59;50.03;100168.91;4993183;28;20030;-76
2022/07/09 01:19:09;;;;;;;7.65;3.67;;;;;;;24.53;50.21;100153.31;4992007;28;20030;-75
2022/07/09 01:21:34;;;;;;;10.52;3.45;;;;;;;24.56;50.21;100164.69;4993135;28;20056;-75
2022/07/09 01:24:00;;;;;;;16.88;4.43;;;;;;;24.52;50.30;100152.50;4992969;28;20033;-75
2022/07/09 01:26:27;;;;;;;11.48;3.45;;;;;;;24.43;50.46;100159.34;4991941;28;20030;-75
2022/07/09 01:28:52;;;;;;;7.50;3.78;;;;;;;;;;4992805;28;20432;-75
2022/07/09 01:31:18;;;;;;;8.05;3.33;;;;;;;24.42;50.44;100156.81;4992858;28;20101;-74
2022/07/09 01:33:44;;;;;;;7.95;3.10;;;;;;;24.40;50.64;100159.81;4992616;28;20064;-74
2022/07/09 01:36:10;;;;;;;8.50;3.45;;;;;;;24.33;50.55;100145.28;4992712;28;20407;-74
2022/07/09 01:38:36;;;;;;;9.40;4.22;;;;;;;24.36;50.39;100153.06;4992735;28;20515;-74
2022/07/09 01:41:02;;;;;;;5.13;3.80;;;;;;;24.30;50.47;100145.72;4992344;28;20109;-74
2022/07/09 01:43:27;;;;;;;6.28;3.50;;;;;;;24.23;50.40;100131.19;4992693;28;20395;-74
2022/07/09 01:45:53;;;;;;;8.45;3.10;;;;;;;24.31;50.36;100150.16;4992515;28;20042;-74
2022/07/09 01:48:19;;;;;;;3.63;2.90;;;;;;;24.31;50.46;100147.41;4992580;28;20045;-74
2022/07/09 01:50:44;;;;;;;7.40;3.03;;;;;;;24.22;50.38;100135.84;4992619;28;20030;-74
2022/07/09 01:53:10;;;;;;;6.65;3.40;;;;;;;24.26;50.34;100147.22;4992609;28;20054;-74
2022/07/09 01:55:36;;;;;;;7.88;3.58;;;;;;;24.19;50.26;100150.03;4992756;28;20034;-75
2022/07/09 01:58:01;;;;;;;9.63;3.25;;;;;;;24.10;50.40;100137.59;4992317;28;20064;-74
2022/07/09 02:00:30;;;;;;;6.25;3.72;;;;;;;24.18;50.44;100142.03;4992294;28;20034;-75
2022/07/09 02:02:56;;;;;;;5.78;3.60;;;;;;;24.10;50.48;100139.50;4992280;28;20117;-74
2022/07/09 02:05:22;;;;;;;8.30;4.10;;;;;;;24.10;50.59;100137.59;4992307;28;20037;-74
2022/07/09 02:07:48;;;;;;;8.30;3.03;;;;;;;24.02;50.60;100120.56;4992307;28;20038;-74
2022/07/09 02:10:14;;;;;;;9.20;3.17;;;;;;;24.09;50.40;100133.19;4992219;28;20041;-75
2022/07/09 02:12:40;;;;;;;13.38;3.67;;;;;;;24.02;50.69;100126.06;4992456;28;20066;-74
2022/07/09 02:15:07;;;;;;;4.45;3.22;;;;;;;24.01;50.66;100125.22;4994494;28;20041;-75
2022/07/09 02:17:34;;;;;;;8.10;3.15;;;;;;;24.07;50.91;100129.81;4994512;28;20037;-75
2022/07/09 02:19:59;;;;;;;9.02;3.20;;;;;;;24.06;50.86;100113.56;4992415;28;20052;-75
2022/07/09 02:22:24;;;;;;;7.97;3.15;;;;;;;23.94;51.17;100127.19;4992243;28;20125;-75
2022/07/09 02:24:50;;;;;;;4.90;3.20;;;;;;;23.94;51.16;100129.09;4992124;28;20034;-74
2022/07/09 02:27:15;;;;;;;10.95;3.17;;;;;;;23.98;51.25;100124.81;4992106;28;20030;-74
2022/07/09 02:29:41;;;;;;;19.10;3.90;;;;;;;23.96;51.64;100132.44;4991930;28;20022;-74
2022/07/09 02:32:07;;;;;;;11.00;3.38;;;;;;;23.93;51.52;100141.13;4991874;28;20030;-74
2022/07/09 02:34:32;;;;;;;13.35;3.70;;;;;;;23.80;51.77;100098.97;4992090;28;20038;-74
2022/07/09 02:36:58;;;;;;;9.45;4.18;;;;;;;23.90;51.84;100130.59;4992141;28;20037;-74
2022/07/09 02:39:23;;;;;;;5.95;3.38;;;;;;;23.90;52.30;100125.09;4991809;28;20121;-74
2022/07/09 02:41:50;;;;;;;12.82;3.97;;;;;;;23.92;52.20;100131.22;4991827;28;20104;-74
2022/07/09 02:44:15;;;;;;;8.18;3.45;;;;;;;23.87;52.30;100144.78;4992147;28;20042;-75
2022/07/09 02:46:41;;;;;;;5.03;3.25;;;;;;;23.82;52.42;100146.28;4991857;28;20042;-75
2022/07/09 02:49:06;;;;;;;16.55;3.33;;;;;;;23.82;52.64;100142.72;4991912;28;20543;-75
2022/07/09 02:51:32;;;;;;;9.30;3.35;;;;;;;23.80;52.72;100134.69;4991871;28;20021;-73
2022/07/09 02:53:57;;;;;;;7.10;3.08;;;;;;;23.84;52.60;100138.69;4991760;28;20093;-74
2022/07/09 02:56:22;;;;;;;4.00;3.13;;;;;;;23.79;52.96;100130.25;4992011;28;20475;-75
2022/07/09 02:58:48;;;;;;;8.77;3.88;;;;;;;23.76;52.95;100130.69;4991371;28;20050;-75
2022/07/09 03:01:13;;;;;;;6.93;3.97;;;;;;;23.79;53.33;100145.91;4991255;28;20030;-75
2022/07/09 03:03:39;;;;;;;8.32;3.55;;;;;;;23.79;53.26;100134.91;4991812;28;20057;-74
2022/07/09 03:06:05;;;;;;;6.90;2.95;;;;;;;23.76;53.21;100136.19;4991788;28;20022;-74
2022/07/09 03:08:31;;;;;;;6.07;3.63;;;;;;;23.77;53.65;100148.00;4990546;28;20102;-74
2022/07/09 03:10:56;;;;;;;40.10;5.88;;;;;;;23.77;53.46;100139.78;4991562;28;20133;-74
2022/07/09 03:13:22;;;;;;;14.35;3.42;;;;;;;23.76;53.79;100135.34;4991327;28;20122;-75
2022/07/09 03:15:47;;;;;;;8.82;5.00;;;;;;;23.73;53.88;100133.03;4991328;28;20027;-75
2022/07/09 03:18:13;;;;;;;16.63;4.72;;;;;;;23.71;53.81;100138.75;4991452;28;20176;-75
2022/07/09 03:20:38;;;;;;;15.68;4.00;;;;;;;23.63;53.98;100125.31;4991580;28;20093;-75
2022/07/09 03:23:04;;;;;;;14.75;5.15;;;;;;;23.64;53.99;100132.47;4991700;28;20022;-75
2022/07/09 03:25:30;;;;;;;12.52;4.03;;;;;;;23.61;54.39;100132.91;4991594;28;20141;-75
2022/07/09 03:27:55;;;;;;;14.88;3.47;;;;;;;23.64;54.52;100126.13;4991491;28;20018;-75
2022/07/09 03:30:21;;;;;;;14.25;5.40;;;;;;;23.60;54.39;100131.25;4992059;28;20507;-75
2022/07/09 03:32:46;;;;;;;17.60;7.15;;;;;;;23.60;54.53;100139.47;4992680;28;20018;-75
2022/07/09 03:35:12;;;;;;;15.00;5.80;;;;;;;23.55;54.78;100139.28;4991035;28;20026;-74
2022/07/09 03:37:37;;;;;;;7.88;4.53;;;;;;;23.49;55.12;100140.16;4991187;28;20076;-73
2022/07/09 03:40:04;;;;;;;13.13;4.32;;;;;;;23.48;54.96;100138.50;4990922;28;20030;-74
2022/07/09 03:42:29;;;;;;;7.15;3.90;;;;;;;23.47;55.40;100141.44;4991664;28;20030;-73
2022/07/09 03:44:55;;;;;;;12.93;3.88;;;;;;;23.44;55.39;100147.38;4994376;28;20049;-75
2022/07/09 03:47:20;;;;;;;9.25;3.70;;;;;;;23.34;55.37;100134.09;4994304;28;20027;-74
2022/07/09 03:49:46;;;;;;;5.00;3.30;;;;;;;23.40;55.50;100157.94;4994377;28;20477;-75
2022/07/09 03:52:11;;;;;;;8.68;3.83;;;;;;;23.31;55.48;100145.50;4994285;28;20018;-76
2022/07/09 03:54:37;;;;;;;9.93;3.67;;;;;;;23.37;55.47;100155.63;4994071;28;20049;-75
2022/07/09 03:57:02;;;;;;;11.15;4.93;;;;;;;23.43;55.34;100154.78;4994072;28;20026;-74
2022/07/09 03:59:28;;;;;;;10.10;4.07;;;;;;;23.42;55.08;100158.59;4994047;28;20026;-74
2022/07/09 04:01:53;;;;;;;10.43;3.72;;;;;;;23.40;54.84;100170.84;4993982;28;20080;-74
2022/07/09 04:04:19;;;;;;;9.98;3.97;;;;;;;23.37;54.97;100158.34;4993999;28;20037;-74
2022/07/09 04:06:44;;;;;;;14.65;4.75;;;;;;;23.23;55.04;100146.63;4993980;28;20587;-74
2022/07/09 04:09:09;;;;;;;9.68;4.35;;;;;;;23.34;55.33;100169.78;4993873;28;20030;-74
2022/07/09 04:11:35;;;;;;;10.45;3.90;;;;;;;23.30;55.34;100165.81;4993939;28;20030;-74
2022/07/09 04:14:01;;;;;;;10.18;4.32;;;;;;;23.16;55.44;100164.16;4993816;28;20026;-75
2022/07/09 04:16:28;;;;;;;13.55;6.07;;;;;;;23.18;55.38;100164.78;4993980;28;20026;-75
2022/07/09 04:18:54;;;;;;;16.10;4.72;;;;;;;23.16;55.70;100170.50;4993935;28;20022;-74
2022/07/09 04:21:22;;;;;;;7.80;4.03;;;;;;;23.15;55.67;100176.19;4993774;28;20404;-74
2022/07/09 04:23:49;;;;;;;12.48;3.88;;;;;;;23.14;55.68;100172.63;4993771;28;20045;-74
2022/07/09 04:26:15;;;;;;;14.05;4.53;;;;;;;23.15;55.29;100178.94;4993883;28;20022;-75
2022/07/09 04:28:41;;;;;;;11.55;4.95;;;;;;;23.04;55.65;100163.16;4993926;28;20054;-75
2022/07/09 04:31:06;;;;;;;10.90;3.53;;;;;;;23.08;55.57;100180.88;4993723;28;20054;-75
2022/07/09 04:33:31;;;;;;;9.20;4.60;;;;;;;23.06;55.76;100181.06;4993583;28;20516;-76
2022/07/09 04:35:57;;;;;;;18.52;6.50;;;;;;;23.10;55.38;100174.13;4993553;28;20022;-75
2022/07/09 04:38:23;;;;;;;10.85;5.25;;;;;;;23.11;55.47;100174.97;4993484;28;20018;-76
2022/07/09 04:40:48;;;;;;;9.82;4.03;;;;;;;23.11;55.20;100173.06;4993347;28;20057;-75
2022/07/09 04:43:14;;;;;;;9.02;4.25;;;;;;;23.08;55.43;100175.41;4993472;28;20064;-74
2022/07/09 04:45:39;;;;;;;8.32;5.13;;;;;;;23.10;55.08;100178.75;4993312;28;20034;-76
2022/07/09 04:48:05;;;;;;;8.13;3.75;;;;;;;23.17;54.79;100166.72;4993222;28;20034;-76
2022/07/09 04:50:31;;;;;;;17.10;3.85;;;;;;;23.17;54.88;100157.63;4993257;28;20038;-75
2022/07/09 04:52:56;;;;;;;13.02;4.45;;;;;;;23.23;54.45;100151.25;4993162;28;20472;-77
2022/07/09 04:55:22;;;;;;;8.75;3.60;;;;;;;23.45;54.37;100184.75;4992830;28;20499;-79
2022/07/09 04:57:47;;;;;;;11.85;3.92;;;;;;;23.50;53.89;100169.31;4992935;28;20104;-76
2022/07/09 05:00:15;;;;;;;8.43;4.30;;;;;;;23.54;53.83;100176.06;4993384;28;20033;-76
2022/07/09 05:02:42;;;;;;;12.75;4.22;;;;;;;23.46;53.41;100140.59;4995848;28;20022;-80
2022/07/09 05:05:08;;;;;;;6.43;3.53;;;;;;;23.65;53.45;100156.13;4994707;28;20476;-77
2022/07/09 05:07:34;;;;;;;17.15;3.42;;;;;;;23.76;53.33;100160.91;4997489;28;20105;-79
2022/07/09 05:10:01;;;;;;;9.13;3.97;;;;;;;23.81;53.17;100150.09;4997844;28;20026;-79
2022/07/09 05:12:27;;;;;;;15.35;4.35;;;;;;;23.82;52.74;100140.78;4993699;28;20022;-79
2022/07/09 05:14:54;;;;;;;8.63;2.90;;;;;;;23.88;53.23;100152.81;4993173;28;20030;-77
2022/07/09 05:17:20;;;;;;;10.45;3.20;;;;;;;23.93;53.00;100139.25;4993488;28;20041;-78
2022/07/09 05:19:45;;;;;;;7.20;3.80;;;;;;;24.08;52.89;100149.88;4993058;28;20023;-77
2022/07/09 05:22:11;;;;;;;16.85;4.30;;;;;;;24.13;52.61;100152.81;4993163;28;20057;-77
2022/07/09 05:24:36;;;;;;;15.82;4.13;;;;;;;24.23;51.98;100155.91;4991605;28;20030;-78
2022/07/09 05:27:03;;;;;;;17.55;4.05;;;;;;;24.24;52.34;100146.63;4992861;28;20069;-76
2022/07/09 05:29:29;;;;;;;11.00;3.92;;;;;;;24.34;52.09;100155.22;4992765;28;20061;-77
2022/07/09 05:31:54;;;;;;;26.02;4.07;;;;;;;24.46;51.68;100158.91;4992575;28;20069;-76
2022/07/09 05:34:19;;;;;;;41.08;6.10;;;;;;;24.43;50.96;100153.00;4992749;28;20037;-78
2022/07/09 05:36:45;;;;;;;21.15;3.47;;;;;;;24.52;50.95;100151.66;4992385;28;20041;-77
2022/07/09 05:39:11;;;;;;;19.05;3.50;;;;;;;24.56;50.65;100147.34;4992541;28;20456;-76
2022/07/09 05:41:36;;;;;;;11.02;3.20;;;;;;;24.64;50.43;100144.31;4991990;28;20078;-77
2022/07/09 05:44:03;;;;;;;19.08;3.40;;;;;;;24.66;50.39;100159.53;4992573;28;20483;-75
2022/07/09 05:46:29;;;;;;;14.60;3.60;;;;;;;24.66;49.99;100137.53;4993631;28;20022;-82
2022/07/09 05:48:55;;;;;;;25.58;4.07;;;;;;;24.64;49.72;100108.56;4993944;28;20019;-82
2022/07/09 05:51:24;;;;;;;20.42;3.28;;;;;;;24.86;49.45;100151.91;4995107;28;20049;-89
2022/07/09 05:53:50;;;;;;;22.58;3.38;;;;;;;24.92;49.03;100124.56;4996840;28;20054;-90
2022/07/09 05:56:15;;;;;;;16.23;3.95;;;;;;;24.85;49.14;100114.50;4999841;28;20030;-87
2022/07/09 05:58:41;;;;;;;17.15;3.83;;;;;;;24.76;48.91;100102.09;5007640;28;20026;-88
2022/07/09 06:01:09;;;;;;;16.52;4.07;;;;;;;25.01;48.47;100117.69;5007604;28;20033;-87
2022/07/09 06:03:34;;;;;;;14.32;2.85;;;;;;;25.00;48.46;100113.25;5006718;28;20019;-87
2022/07/09 06:06:00;;;;;;;7.13;3.65;;;;;;;25.28;48.45;100141.03;4994567;28;20088;-84
2022/07/09 06:08:25;;;;;;;21.02;3.53;;;;;;;25.32;47.66;100126.56;4992929;28;20396;-78
2022/07/09 06:10:51;;;;;;;17.23;3.35;;;;;;;25.38;47.56;100124.81;4991757;28;20033;-77
2022/07/09 06:13:17;;;;;;;18.58;3.45;;;;;;;25.43;47.68;100117.53;4990851;28;20114;-77
2022/07/09 06:15:43;;;;;;;15.70;4.18;;;;;;;25.48;47.81;100124.22;4992127;28;20129;-79
2022/07/09 06:18:09;;;;;;;11.60;2.78;;;;;;;25.61;47.52;100118.56;4994077;28;20543;-79
2022/07/09 06:20:34;;;;;;;30.85;3.85;;;;;;;25.69;46.98;100109.97;4992996;28;20023;-81
2022/07/09 06:23:00;;;;;;;33.95;3.05;;;;;;;25.76;46.58;100114.31;4994746;28;20034;-84
2022/07/09 06:25:25;;;;;;;10.85;3.28;;;;;;;25.82;47.04;100104.25;4993136;28;20026;-84
2022/07/09 06:27:51;;;;;;;11.63;3.55;;;;;;;25.91;46.34;100103.66;4993229;28;20105;-84
2022/07/09 06:30:16;;;;;;;15.70;3.83;;;;;;;25.79;46.17;100086.28;4993040;28;20030;-82
2022/07/09 06:32:42;;;;;;;16.92;3.72;;;;;;;25.99;46.05;100106.06;4992918;28;20029;-83
2022/07/09 06:35:08;;;;;;;11.85;3.60;;;;;;;25.95;46.24;100087.50;4992875;28;20029;-83
2022/07/09 06:37:33;;;;;;;7.75;2.75;;;;;;;26.15;45.83;100093.53;4992378;28;20105;-82
2022/07/09 06:39:59;;;;;;;39.47;5.45;;;;;;;26.01;45.37;100069.16;4990982;28;20032;-81
2022/07/09 06:42:25;;;;;;;36.55;4.18;;;;;;;26.19;45.26;100093.91;4993184;28;20112;-83
2022/07/09 06:44:51;;;;;;;12.52;2.22;;;;;;;26.24;45.58;100085.75;4993807;28;20117;-84
2022/07/09 06:47:16;;;;;;;11.90;2.60;;;;;;;26.37;45.45;100093.78;4995087;28;20476;-83
2022/07/09 06:49:42;;;;;;;23.67;3.42;;;;;;;26.41;45.48;100078.44;4993656;28;20019;-82
2022/07/09 06:52:08;;;;;;;14.98;2.13;;;;;;;26.57;44.99;100085.97;4992143;28;20022;-84
2022/07/09 06:54:35;;;;;;;18.27;4.93;;;;;;;26.65;44.91;100076.47;4992984;28;20050;-85
2022/07/09 06:57:01;;;;;;;12.63;3.00;;;;;;;26.75;44.67;100077.56;4993327;28;20134;-84
2022/07/09 06:59:27;;;;;;;30.00;3.85;;;;;;;26.80;43.67;100087.88;4993979;28;20030;-82
2022/07/09 07:01:52;;;;;;;48.78;5.53;;;;;;;26.79;43.69;100073.19;4993213;28;20042;-83
2022/07/09 07:04:19;;;;;;;20.75;2.95;;;;;;;26.84;43.55;100078.88;4992844;28;20037;-83
2022/07/09 07:06:48;;;;;;;20.92;3.58;;;;;;;26.86;43.86;100076.69;4993029;28;20036;-83
2022/07/09 07:09:15;;;;;;;25.13;7.05;;;;;;;26.97;43.79;100108.13;4994151;28;20073;-83
2022/07/09 07:11:40;;;;;;;27.02;3.55;;;;;;;26.94;43.77;100092.88;5012337;28;20030;-83
2022/07/09 07:14:06;;;;;;;22.00;4.22;;;;;;;26.93;43.89;100079.31;5012810;28;20091;-83
2022/07/09 07:16:31;;;;;;;21.20;4.45;;;;;;;26.92;43.98;100088.69;5012581;28;20026;-84
2022/07/09 07:18:56;;;;;;;28.65;6.82;;;;;;;26.93;43.79;100105.00;5015579;28;20025;-84
2022/07/09 07:21:22;;;;;;;24.27;5.78;;;;;;;26.79;43.77;100095.28;5016041;28;20488;-83
2022/07/09 07:23:47;;;;;;;9.40;4.20;;;;;;;26.71;43.80;100092.91;5017686;28;20033;-83
2022/07/09 07:26:13;;;;;;;18.00;2.80;;;;;;;26.70;44.03;100096.72;5018953;28;20054;-82
2022/07/09 07:28:38;;;;;;;21.08;2.72;;;;;;;26.72;43.66;100099.25;5019221;28;20036;-82
2022/07/09 07:31:04;;;;;;;23.08;9.95;;;;;;;26.64;43.72;100094.09;5022531;28;20025;-83
2022/07/09 07:33:29;;;;;;;25.02;4.80;;;;;;;26.67;44.20;100085.34;5011254;28;20117;-83
2022/07/09 07:35:55;;;;;;;11.57;2.17;;;;;;;26.77;43.95;100093.84;5001669;28;20031;-82
2022/07/09 07:38:20;;;;;;;11.48;3.00;;;;;;;26.76;43.90;100084.72;4978476;28;20041;-83
2022/07/09 07:40:46;;;;;;;18.00;3.38;;;;;;;26.77;43.53;100080.91;4995795;28;20034;-83
2022/07/09 07:43:11;;;;;;;18.52;2.80;;;;;;;26.81;44.18;100076.59;4995639;28;20030;-77
2022/07/09 07:45:38;;;;;;;19.63;3.50;;;;;;;27.06;42.89;100094.78;4994918;28;20097;-76
2022/07/09 07:48:03;;;;;;;11.23;2.75;;;;;;;27.04;43.34;100095.84;4994860;28;20034;-76
2022/07/09 07:50:29;;;;;;;148.27;11.07;;;;;;;27.16;42.98;100101.31;4994780;28;20027;-75
2022/07/09 07:52:56;;;;;;;23.23;3.85;;;;;;;27.21;42.85;100120.78;4994401;28;20050;-75
2022/07/09 07:55:22;;;;;;;13.65;2.97;;;;;;;27.30;43.09;100113.78;4995006;28;20027;-76
2022/07/09 07:57:48;;;;;;;10.48;3.47;;;;;;;27.43;43.18;100101.63;4995053;28;20026;-75
2022/07/09 08:00:14;;;;;;;15.45;2.50;;;;;;;27.44;42.59;100103.28;4997178;28;20034;-75
2022/07/09 08:02:39;;;;;;;12.93;2.78;;;;;;;27.44;42.70;100109.66;4995492;28;20030;-74
2022/07/09 08:05:05;;;;;;;22.88;3.20;;;;;;;27.45;42.82;100104.97;4992870;28;20153;-75
2022/07/09 08:07:32;;;;;;;32.30;3.88;;;;;;;27.36;43.22;100101.75;4992888;28;20560;-75
2022/07/09 08:09:57;;;;;;;16.00;7.22;;;;;;;27.35;43.31;100110.25;4994978;28;20069;-81
2022/07/09 08:12:23;;;;;;;16.67;7.90;;;;;;;27.42;43.38;100108.19;4978672;28;20049;-82
2022/07/09 08:14:48;;;;;;;9.13;2.97;;;;;;;27.51;43.02;100117.78;4995484;28;20531;-81
2022/07/09 08:17:14;;;;;;;10.07;2.83;;;;;;;27.57;42.98;100097.47;4995499;28;20026;-80
2022/07/09 08:19:39;;;;;;;10.50;2.78;;;;;;;27.69;42.28;100125.88;4995140;28;20511;-80
2022/07/09 08:22:05;;;;;;;41.17;4.57;;;;;;;27.63;42.55;100093.69;4995655;28;20086;-82
2022/07/09 08:24:30;;;;;;;12.52;3.53;;;;;;;27.71;42.44;100086.91;4978976;28;20459;-79
2022/07/09 08:26:56;;;;;;;9.55;3.90;;;;;;;27.89;42.37;100115.16;4996796;28;20022;-79
2022/07/09 08:29:22;;;;;;;22.38;3.70;;;;;;;27.87;42.00;100113.75;4994347;28;20022;-75
2022/07/09 08:31:49;;;;;;;8.23;3.45;;;;;;;27.84;42.14;100120.59;4994163;28;20396;-75
2022/07/09 08:34:15;;;;;;;27.67;4.38;;;;;;;27.87;41.97;100119.25;4995055;28;20389;-89
2022/07/09 08:36:40;;;;;;;9.82;3.15;;;;;;;27.93;42.21;100119.09;4994881;28;20113;-76
2022/07/09 08:39:05;;;;;;;13.40;2.72;;;;;;;27.94;42.42;100123.56;4994094;28;20362;-76
2022/07/09 08:41:31;;;;;;;40.13;4.85;;;;;;;27.76;42.76;100087.88;4994739;28;20507;-77
2022/07/09 08:43:56;;;;;;;9.73;2.78;;;;;;;27.91;42.47;100115.75;4994855;28;20030;-78
2022/07/09 08:46:22;;;;;;;6.05;2.45;;;;;;;28.04;42.43;100122.91;4994501;28;20086;-79
2022/07/09 08:48:49;;;;;;;15.55;4.72;;;;;;;28.08;41.99;100119.41;4994470;28;20026;-74
2022/07/09 08:51:14;;;;;;;18.75;3.22;;;;;;;28.05;42.00;100106.06;4993723;28;20033;-75
2022/07/09 08:53:42;;;;;;;16.63;3.17;;;;;;;27.99;42.48;100100.66;4993592;28;20054;-75
2022/07/09 08:56:09;;;;;;;11.77;3.15;;;;;;;28.09;42.33;100114.72;4993532;28;20432;-83
2022/07/09 08:58:35;;;;;;;15.85;4.25;;;;;;;28.18;42.44;100117.88;4999118;28;20023;-77
2022/07/09 09:01:01;;;;;;;9.10;3.10;;;;;;;28.27;42.06;100113.59;4993248;28;20034;-78
2022/07/09 09:03:26;;;;;;;26.60;4.97;;;;;;;28.27;42.27;100124.66;4993382;28;20029;-78
2022/07/09 09:06:03;;;;;;;28.13;9.23;;;;;;;28.31;42.24;100114.78;4993482;28;20045;-79
2022/07/09 09:08:37;;;;;;;13.43;3.45;;;;;;;28.50;41.63;100116.19;4992995;28;20026;-77
2022/07/09 09:11:07;;;;;;;5.30;3.00;;;;;;;28.69;41.43;100117.59;5010161;28;20026;-76
2022/07/09 09:13:43;;;;;;;11.88;2.88;;;;;;;28.83;41.58;100115.28;5012663;28;20029;-78
2022/07/09 09:16:10;;;;;;;16.60;3.63;;;;;;;28.86;41.16;100093.47;5013365;28;20056;-81
2022/07/09 09:18:47;;;;;;;24.23;3.50;;;;;;;28.94;40.77;100103.25;5013416;28;20484;-85
2022/07/09 09:21:14;;;;;;;14.30;3.28;;;;;;;29.09;40.68;100111.75;4996333;28;20029;-86
2022/07/09 09:23:44;;;;;;;8.88;3.53;;;;;;;29.30;40.46;100107.31;4995647;28;20164;-76
2022/07/09 09:26:18;;;;;;;15.98;3.47;;;;;;;29.49;40.03;100111.41;4994494;28;20087;-77
2022/07/09 09:28:51;;;;;;;6.30;2.63;;;;;;;29.58;38.89;100110.69;5012260;28;20053;-76
2022/07/09 09:31:36;;;;;;;11.48;3.63;;;;;;;29.63;38.77;100107.94;5012384;28;20029;-76
2022/07/09 09:34:04;;;;;;;15.55;2.80;;;;;;;29.64;38.43;100115.19;4994274;28;20025;-75
2022/07/09 09:36:35;;;;;;;18.02;3.22;;;;;;;29.56;38.60;100106.50;5012044;28;20107;-78
2022/07/09 09:39:07;;;;;;;10.55;3.03;;;;;;;29.62;39.22;100105.44;4993800;28;20116;-75
2022/07/09 09:41:33;;;;;;;10.25;4.13;;;;;;;29.67;39.07;100119.34;5010996;28;20022;-75
2022/07/09 09:44:05;;;;;;;18.48;3.38;;;;;;;29.77;39.23;100102.81;4994111;28;20026;-75
2022/07/09 09:46:34;;;;;;;12.57;2.65;;;;;;;29.89;38.91;100094.38;5011780;28;20570;-77
2022/07/09 09:49:00;;;;;;;31.42;4.05;;;;;;;30.00;38.66;100096.13;4993885;28;20116;-76
2022/07/09 09:51:30;;;;;;;6.43;2.75;;;;;;;30.07;37.91;100086.47;5011499;28;20021;-76
2022/07/09 09:53:57;;;;;;;10.52;3.33;;;;;;;30.15;37.95;100094.28;5011618;28;20111;-77
2022/07/09 09:56:25;;;;;;;23.65;4.18;;;;;;;30.29;37.42;100091.91;5011681;28;20022;-77
2022/07/09 09:58:52;;;;;;;17.13;3.00;;;;;;;30.44;36.94;100091.22;5011399;28;20504;-74
2022/07/09 10:01:17;;;;;;;14.15;2.95;;;;;;;30.37;37.26;100068.34;4996573;28;20088;-78
2022/07/09 10:03:43;;;;;;;27.75;4.22;;;;;;;30.57;36.42;100091.59;4992766;28;20030;-76
2022/07/09 10:06:09;;;;;;;14.90;3.60;;;;;;;30.60;37.02;100079.09;4991897;28;20026;-76
2022/07/09 10:08:35;;;;;;;17.05;3.17;;;;;;;30.65;36.05;100093.00;4991973;28;20496;-77
2022/07/09 10:11:00;;;;;;;14.35;2.95;;;;;;;30.64;36.34;100085.78;4991656;28;20499;-76
2022/07/09 10:13:26;;;;;;;14.98;5.63;;;;;;;30.58;36.52;100073.78;4991574;28;20026;-76
2022/07/09 10:15:54;;;;;;;22.48;5.03;;;;;;;30.64;36.27;100081.06;4991800;28;20030;-76
2022/07/09 10:18:20;;;;;;;13.93;3.17;;;;;;;30.68;36.06;100079.41;4991667;28;20049;-77
2022/07/09 10:20:46;;;;;;;14.55;2.40;;;;;;;30.54;35.83;100075.47;4991825;28;20023;-80
2022/07/09 10:23:24;;;;;;;8.38;2.97;;;;;;;30.39;36.00;100064.28;4992853;28;20054;-84
2022/07/09 10:25:52;;;;;;;22.52;4.50;;;;;;;30.56;36.38;100091.84;4975996;28;20412;-83
2022/07/09 10:28:19;;;;;;;19.77;3.80;;;;;;;30.50;35.96;100092.91;4993208;28;20018;-79
2022/07/09 10:30:46;;;;;;;7.60;3.25;;;;;;;30.47;35.43;100087.88;4993647;28;20054;-76
2022/07/09 10:33:35;;;;;;;17.73;2.90;;;;;;;30.42;35.58;100082.31;4991844;28;20038;-77
2022/07/09 10:36:14;;;;;;;11.27;2.55;;;;;;;30.45;35.32;100077.06;4991844;28;20129;-76
2022/07/09 10:38:39;;;;;;;12.85;3.35;;;;;;;30.50;35.48;100090.97;4991803;28;20109;-80
2022/07/09 10:41:05;;;;;;;15.68;3.10;;;;;;;30.57;36.15;100074.09;4991512;28;20196;-76
2022/07/09 10:43:50;;;;;;;13.65;2.22;;;;;;;30.57;35.64;100074.09;4991784;28;20037;-77
2022/07/09 10:46:16;;;;;;;6.00;2.40;;;;;;;30.68;35.75;100076.63;4974390;28;20027;-78
2022/07/09 10:48:43;;;;;;;8.50;2.10;;;;;;;30.69;35.15;100083.03;4974242;28;20029;-76
2022/07/09 10:51:19;;;;;;;12.10;2.53;;;;;;;30.82;35.55;100077.00;4992249;28;20026;-77
2022/07/09 10:53:45;;;;;;;14.85;3.53;;;;;;;30.95;34.90;100070.94;4996334;28;20054;-79
2022/07/09 10:56:10;;;;;;;16.65;2.55;;;;;;;31.17;35.44;100067.97;4999688;28;20041;-78
2022/07/09 10:58:36;;;;;;;4.20;2.45;;;;;;;31.20;34.64;100061.88;5000531;28;20105;-78
2022/07/09 11:01:04;;;;;;;7.32;2.47;;;;;;;31.13;34.56;100051.00;4995610;28;20027;-77
2022/07/09 11:03:32;;;;;;;5.72;3.10;;;;;;;31.26;34.81;100078.28;4995913;28;20026;-77
2022/07/09 11:05:58;;;;;;;11.10;4.35;;;;;;;31.23;34.42;100062.16;4995835;28;20033;-79
2022/07/09 11:08:24;;;;;;;16.98;2.97;;;;;;;31.18;34.33;100067.72;4995667;28;20030;-77
2022/07/09 11:10:50;;;;;;;11.05;2.65;;;;;;;31.35;34.03;100063.84;4995569;28;20019;-76
2022/07/09 11:13:15;;;;;;;22.73;2.22;;;;;;;31.39;33.92;100054.69;4995561;28;20033;-79
2022/07/09 11:15:41;;;;;;;19.27;2.53;;;;;;;31.52;33.52;100043.09;4995756;28;20027;-77